createdAt,value
2019-02-22T00:00:51.925Z,30.00
2019-02-22T00:03:19.681Z,28.90
2019-02-22T00:05:47.535Z,33.13
2019-02-22T00:08:15.277Z,32.50
2019-02-22T00:10:43.200Z,29.77
2019-02-22T00:13:11.011Z,32.20
2019-02-22T00:15:38.969Z,32.00
2019-02-22T00:18:06.748Z,29.87
2019-02-22T00:20:34.535Z,32.13
2019-02-22T00:23:02.348Z,30.03
2019-02-22T00:25:30.297Z,29.37
2019-02-22T00:27:58.049Z,28.17
2019-02-22T00:30:26.007Z,30.03
2019-02-22T00:32:53.789Z,27.17
2019-02-22T00:35:21.660Z,27.67
2019-02-22T00:37:49.601Z,29.20
2019-02-22T00:40:17.319Z,28.13
2019-02-22T00:42:45.352Z,27.40
2019-02-22T00:45:13.103Z,26.60
2019-02-22T00:47:40.835Z,28.07
2019-02-22T00:50:08.607Z,27.90
2019-02-22T00:52:36.539Z,28.37
2019-02-22T00:55:04.537Z,27.53
2019-02-22T00:57:32.442Z,27.37
2019-02-22T01:00:00.357Z,28.73
2019-02-22T01:02:28.445Z,28.30
2019-02-22T01:04:56.179Z,29.17
2019-02-22T01:07:23.948Z,28.23
2019-02-22T01:09:51.711Z,27.03
2019-02-22T01:12:19.483Z,29.07
2019-02-22T01:14:47.266Z,30.53
2019-02-22T01:17:15.196Z,31.17
2019-02-22T01:19:42.942Z,28.83
2019-02-22T01:22:10.888Z,30.37
2019-02-22T01:24:38.664Z,29.57
2019-02-22T01:27:06.616Z,31.43
2019-02-22T01:29:34.405Z,29.77
2019-02-22T01:32:02.391Z,28.87
2019-02-22T01:34:30.189Z,30.80
2019-02-22T01:36:58.010Z,30.47
2019-02-22T01:39:25.799Z,31.37
2019-02-22T01:41:53.753Z,29.60
2019-02-22T01:44:22.055Z,31.87
2019-02-22T01:46:50.031Z,29.57
2019-02-22T01:49:17.935Z,28.73
2019-02-22T01:51:45.927Z,28.57
2019-02-22T01:54:13.675Z,27.37
2019-02-22T01:56:41.499Z,28.63
2019-02-22T01:59:09.249Z,28.70
2019-02-22T02:01:37.456Z,27.80
2019-02-22T02:04:05.238Z,28.93
2019-02-22T02:06:33.199Z,27.93
2019-02-22T02:09:00.929Z,30.40
2019-02-22T02:11:28.869Z,28.03
2019-02-22T02:13:56.860Z,28.87
2019-02-22T02:16:24.652Z,26.33
2019-02-22T02:18:52.606Z,27.10
2019-02-22T02:21:20.361Z,31.60
2019-02-22T02:23:48.108Z,29.03
2019-02-22T02:26:16.098Z,28.97
2019-02-22T02:28:44.013Z,29.57
2019-02-22T02:31:11.932Z,29.63
2019-02-22T02:33:39.891Z,28.33
2019-02-22T02:36:07.675Z,27.93
2019-02-22T02:38:35.596Z,29.47
2019-02-22T02:41:08.438Z,27.93
2019-02-22T02:43:33.158Z,29.33
2019-02-22T02:46:00.961Z,28.27
2019-02-22T02:48:28.718Z,26.93
2019-02-22T02:50:56.543Z,27.07
2019-02-22T02:53:24.483Z,26.53
2019-02-22T02:55:52.216Z,27.20
2019-02-22T02:58:20.186Z,26.57
2019-02-22T03:00:47.935Z,26.27
2019-02-22T03:03:15.887Z,26.80
2019-02-22T03:06:01.652Z,27.83
2019-02-22T03:08:32.948Z,26.30
2019-02-22T03:11:00.701Z,26.30
2019-02-22T03:13:28.768Z,27.20
2019-02-22T03:15:56.530Z,28.00
2019-02-22T03:18:24.288Z,26.73
2019-02-22T03:20:52.032Z,26.83
2019-02-22T03:23:20.000Z,25.63
2019-02-22T03:25:47.986Z,27.40
2019-02-22T03:28:15.907Z,27.87
2019-02-22T03:30:43.655Z,26.27
2019-02-22T03:33:11.473Z,27.83
2019-02-22T03:35:39.266Z,28.47
2019-02-22T03:38:07.038Z,25.97
2019-02-22T03:40:34.800Z,27.10
2019-02-22T03:43:02.610Z,25.53
2019-02-22T03:45:30.358Z,29.07
2019-02-22T03:47:58.298Z,24.63
2019-02-22T03:50:26.112Z,25.37
2019-02-22T03:53:08.828Z,25.03
2019-02-22T03:55:36.754Z,26.00
2019-02-22T03:58:04.698Z,28.37
2019-02-22T04:00:32.681Z,26.47
2019-02-22T04:03:00.597Z,30.20
2019-02-22T04:05:28.392Z,26.97
2019-02-22T04:07:56.390Z,32.40
2019-02-22T04:10:24.299Z,31.50
2019-02-22T04:12:52.079Z,28.57
2019-02-22T04:15:19.840Z,30.00
2019-02-22T04:17:47.630Z,32.53
2019-02-22T04:20:15.373Z,31.13
2019-02-22T04:22:44.337Z,37.10
2019-02-22T04:25:12.407Z,29.20
2019-02-22T04:27:40.369Z,29.73
2019-02-22T04:30:08.701Z,33.43
2019-02-22T04:32:36.491Z,30.67
2019-02-22T04:35:04.636Z,27.00
2019-02-22T04:37:32.453Z,29.17
2019-02-22T04:40:00.441Z,26.63
2019-02-22T04:42:28.302Z,24.67
2019-02-22T04:44:56.035Z,24.30
2019-02-22T04:47:23.802Z,24.03
2019-02-22T04:49:51.574Z,24.37
2019-02-22T04:52:19.337Z,19.77
2019-02-22T04:54:47.249Z,21.67
2019-02-22T04:57:15.035Z,19.67
2019-02-22T04:59:42.950Z,21.23
2019-02-22T05:02:10.727Z,21.37
2019-02-22T05:04:38.637Z,20.37
2019-02-22T05:07:06.425Z,19.50
2019-02-22T05:09:34.303Z,18.93
2019-02-22T05:12:10.353Z,19.37
2019-02-22T05:14:31.747Z,21.50
2019-02-22T05:16:59.561Z,20.70
2019-02-22T05:19:27.364Z,18.77
2019-02-22T05:21:55.120Z,20.17
2019-02-22T05:24:23.093Z,18.60
2019-02-22T05:26:50.863Z,16.03
2019-02-22T05:29:18.795Z,16.23
2019-02-22T05:31:46.751Z,15.53
2019-02-22T05:34:14.473Z,14.93
2019-02-22T05:36:44.254Z,16.53
2019-02-22T05:39:19.097Z,16.63
2019-02-22T05:41:44.409Z,21.17
2019-02-22T05:44:12.392Z,19.60
2019-02-22T05:46:40.159Z,19.40
2019-02-22T05:49:08.131Z,18.37
2019-02-22T05:51:36.030Z,17.57
2019-02-22T05:54:03.788Z,19.40
2019-02-22T05:56:31.687Z,16.83
2019-02-22T05:58:59.449Z,17.37
2019-02-22T06:01:27.210Z,21.03
2019-02-22T06:03:54.972Z,19.53
2019-02-22T06:06:22.740Z,16.97
2019-02-22T06:08:50.528Z,18.10
2019-02-22T06:11:18.455Z,16.13
2019-02-22T06:13:46.235Z,16.93
2019-02-22T06:16:13.977Z,17.03
2019-02-22T06:18:41.797Z,15.57
2019-02-22T06:21:09.591Z,16.73
2019-02-22T06:23:37.377Z,17.13
2019-02-22T06:26:05.123Z,17.77
2019-02-22T06:28:32.879Z,17.37
2019-02-22T06:31:00.809Z,18.63
2019-02-22T06:33:28.583Z,18.93
2019-02-22T06:35:56.394Z,19.83
2019-02-22T06:38:24.207Z,17.97
2019-02-22T06:40:52.200Z,18.70
2019-02-22T06:43:19.919Z,16.83
2019-02-22T06:45:48.133Z,17.23
2019-02-22T06:48:15.927Z,15.47
2019-02-22T06:50:43.687Z,16.27
2019-02-22T06:53:11.473Z,16.17
2019-02-22T06:55:39.273Z,15.80
2019-02-22T06:58:07.362Z,14.83
2019-02-22T07:00:35.346Z,13.17
2019-02-22T07:03:03.092Z,13.87
2019-02-22T07:05:30.862Z,14.00
2019-02-22T07:07:58.854Z,13.03
2019-02-22T07:10:26.835Z,12.80
2019-02-22T07:12:59.007Z,11.87
2019-02-22T07:15:26.808Z,14.03
2019-02-22T07:17:54.551Z,12.30
2019-02-22T07:20:22.342Z,10.00
2019-02-22T07:22:50.123Z,11.27
2019-02-22T07:25:17.953Z,11.27
2019-02-22T07:27:45.805Z,12.17
2019-02-22T07:30:13.680Z,10.20
2019-02-22T07:32:41.755Z,10.23
2019-02-22T07:35:10.004Z,10.53
2019-02-22T07:37:37.796Z,10.30
2019-02-22T07:40:05.905Z,10.43
2019-02-22T07:42:33.667Z,10.80
2019-02-22T07:45:01.445Z,11.23
2019-02-22T07:47:29.376Z,9.37
2019-02-22T07:49:57.195Z,9.50
2019-02-22T07:52:25.066Z,8.57
2019-02-22T07:54:52.891Z,9.27
2019-02-22T07:57:20.894Z,10.10
2019-02-22T07:59:48.623Z,9.17
2019-02-22T08:02:16.589Z,8.93
2019-02-22T08:04:44.384Z,9.43
2019-02-22T08:07:12.377Z,8.13
2019-02-22T08:09:43.991Z,8.13
2019-02-22T08:12:12.080Z,8.57
2019-02-22T08:14:39.911Z,7.97
2019-02-22T08:17:07.715Z,8.57
2019-02-22T08:19:35.483Z,7.43
2019-02-22T08:22:03.698Z,10.03
2019-02-22T08:24:31.495Z,10.00
2019-02-22T08:26:59.269Z,8.23
2019-02-22T08:29:27.289Z,10.03
2019-02-22T08:31:55.098Z,8.37
2019-02-22T08:34:22.828Z,6.97
2019-02-22T08:36:50.596Z,7.27
2019-02-22T08:39:18.355Z,6.90
2019-02-22T08:41:46.153Z,7.30
2019-02-22T08:44:13.961Z,8.50
2019-02-22T08:46:41.764Z,8.03
2019-02-22T08:49:09.519Z,8.13
2019-02-22T08:51:37.359Z,9.27
2019-02-22T08:54:05.528Z,10.07
2019-02-22T08:56:33.325Z,10.20
2019-02-22T08:59:01.075Z,9.93
2019-02-22T09:01:28.826Z,10.23
2019-02-22T09:03:56.557Z,10.73
2019-02-22T09:06:24.408Z,12.33
2019-02-22T09:08:52.215Z,11.70
2019-02-22T09:11:20.042Z,11.13
2019-02-22T09:13:48.051Z,11.03
2019-02-22T09:16:15.932Z,11.87
2019-02-22T09:18:45.281Z,12.10
2019-02-22T09:21:13.126Z,15.17
2019-02-22T09:23:40.877Z,13.87
2019-02-22T09:26:08.702Z,11.93
2019-02-22T09:28:36.528Z,11.20
2019-02-22T09:31:04.309Z,9.70
2019-02-22T09:33:32.198Z,14.33
2019-02-22T09:35:59.968Z,11.03
2019-02-22T09:38:27.744Z,10.43
2019-02-22T09:40:55.534Z,9.87
2019-02-22T09:43:23.259Z,9.20
2019-02-22T09:45:51.046Z,7.90
2019-02-22T09:48:18.809Z,9.07
2019-02-22T09:50:46.571Z,8.47
2019-02-22T09:53:14.340Z,7.77
2019-02-22T09:55:42.126Z,7.93
2019-02-22T09:58:09.885Z,9.00
2019-02-22T10:00:37.641Z,9.13
2019-02-22T10:03:05.404Z,8.00
2019-02-22T10:05:33.145Z,7.83
2019-02-22T10:08:00.923Z,7.37
2019-02-22T10:10:28.676Z,6.53
2019-02-22T10:12:56.457Z,8.73
2019-02-22T10:15:24.277Z,6.87
2019-02-22T10:17:52.041Z,8.07
2019-02-22T10:20:19.854Z,7.83
2019-02-22T10:22:47.703Z,7.27
2019-02-22T10:25:15.561Z,8.63
2019-02-22T10:27:43.355Z,8.13
2019-02-22T10:30:11.158Z,8.20
2019-02-22T10:32:42.843Z,8.23
2019-02-22T10:35:11.718Z,9.07
2019-02-22T10:37:39.528Z,6.97
2019-02-22T10:40:07.461Z,6.77
2019-02-22T10:42:35.247Z,6.30
2019-02-22T10:45:03.267Z,6.20
2019-02-22T10:47:31.031Z,6.00
2019-02-22T10:49:58.838Z,5.23
2019-02-22T10:52:26.606Z,4.97
2019-02-22T10:54:54.357Z,5.20
2019-02-22T10:57:22.159Z,4.60
2019-02-22T10:59:49.942Z,4.70
2019-02-22T11:02:17.777Z,4.30
2019-02-22T11:04:45.540Z,4.43
2019-02-22T11:07:13.784Z,4.40
2019-02-22T11:09:41.576Z,4.50
2019-02-22T11:12:09.360Z,4.57
2019-02-22T11:14:37.165Z,4.30
2019-02-22T11:17:04.964Z,3.87
2019-02-22T11:19:32.777Z,3.20
2019-02-22T11:22:00.540Z,3.63
2019-02-22T11:24:28.373Z,5.27
2019-02-22T11:26:56.149Z,4.63
2019-02-22T11:29:23.911Z,5.10
2019-02-22T11:31:51.932Z,5.00
2019-02-22T11:34:19.692Z,5.00
2019-02-22T11:36:47.559Z,5.50
2019-02-22T11:39:15.331Z,5.90
2019-02-22T11:41:43.145Z,6.93
2019-02-22T11:44:12.282Z,5.90
2019-02-22T11:46:40.363Z,5.80
2019-02-22T11:49:08.140Z,5.80
2019-02-22T11:51:36.359Z,6.03
2019-02-22T11:54:04.103Z,6.33
2019-02-22T11:56:32.226Z,6.00
2019-02-22T11:59:00.027Z,6.07
2019-02-22T12:01:27.913Z,6.17
2019-02-22T12:03:55.778Z,5.87
2019-02-22T12:06:23.612Z,6.67
2019-02-22T12:08:51.469Z,6.90
2019-02-22T12:11:19.311Z,6.50
2019-02-22T12:13:47.147Z,6.27
2019-02-22T12:16:14.957Z,6.97
2019-02-22T12:18:42.767Z,6.00
2019-02-22T12:21:10.864Z,6.80
2019-02-22T12:23:38.658Z,9.40
2019-02-22T12:26:06.501Z,6.40
2019-02-22T12:28:34.230Z,13.03
2019-02-22T12:31:02.397Z,7.93
2019-02-22T12:33:31.342Z,8.00
2019-02-22T12:35:59.055Z,14.27
2019-02-22T12:38:28.250Z,7.77
2019-02-22T12:40:56.193Z,9.20
2019-02-22T12:43:23.967Z,6.47
2019-02-22T12:45:51.692Z,7.07
2019-02-22T12:48:19.499Z,7.57
2019-02-22T12:50:47.233Z,7.80
2019-02-22T12:53:15.015Z,6.80
2019-02-22T12:55:42.761Z,7.37
2019-02-22T12:58:10.851Z,6.60
2019-02-22T13:00:38.671Z,7.70
2019-02-22T13:03:06.438Z,6.27
2019-02-22T13:05:34.277Z,8.23
2019-02-22T13:08:02.056Z,7.30
2019-02-22T13:10:29.801Z,6.70
2019-02-22T13:12:57.581Z,8.83
2019-02-22T13:15:25.361Z,8.40
2019-02-22T13:17:53.175Z,6.80
2019-02-22T13:20:20.938Z,7.07
2019-02-22T13:22:48.774Z,7.93
2019-02-22T13:25:16.528Z,9.20
2019-02-22T13:27:44.372Z,7.40
2019-02-22T13:30:12.244Z,7.50
2019-02-22T13:32:40.025Z,7.33
2019-02-22T13:35:10.696Z,7.30
2019-02-22T13:37:37.804Z,8.13
2019-02-22T13:40:07.744Z,8.60
2019-02-22T13:42:35.640Z,8.83
2019-02-22T13:45:03.775Z,7.53
2019-02-22T13:47:31.570Z,8.10
2019-02-22T13:49:59.353Z,8.27
2019-02-22T13:52:27.207Z,13.27
2019-02-22T13:54:54.990Z,13.37
2019-02-22T13:57:22.814Z,16.60
2019-02-22T13:59:50.613Z,8.70
2019-02-22T14:02:19.764Z,6.97
2019-02-22T14:04:47.573Z,7.67
2019-02-22T14:07:15.356Z,7.20
2019-02-22T14:09:43.126Z,7.37
2019-02-22T14:12:10.955Z,9.43
2019-02-22T14:14:38.717Z,8.47
2019-02-22T14:17:06.482Z,9.37
2019-02-22T14:19:34.241Z,7.77
2019-02-22T14:22:02.026Z,8.80
2019-02-22T14:24:29.801Z,8.77
2019-02-22T14:26:57.579Z,9.17
2019-02-22T14:29:25.348Z,8.83
2019-02-22T14:31:53.157Z,8.27
2019-02-22T14:34:20.961Z,8.63
2019-02-22T14:36:48.852Z,9.40
2019-02-22T14:39:16.620Z,8.37
2019-02-22T14:41:45.564Z,9.40
2019-02-22T14:44:13.341Z,8.17
2019-02-22T14:46:41.130Z,8.57
2019-02-22T14:49:08.894Z,8.13
2019-02-22T14:51:36.628Z,7.93
2019-02-22T14:54:04.410Z,8.13
2019-02-22T14:56:32.176Z,7.80
2019-02-22T14:58:59.956Z,8.50
2019-02-22T15:01:27.716Z,7.93
2019-02-22T15:03:55.524Z,7.83
2019-02-22T15:06:23.310Z,8.07
2019-02-22T15:08:51.168Z,8.23
2019-02-22T15:11:19.018Z,7.93
2019-02-22T15:13:46.875Z,8.10
2019-02-22T15:16:32.977Z,7.97
2019-02-22T15:19:00.783Z,7.53
2019-02-22T15:21:28.551Z,7.77
2019-02-22T15:23:56.289Z,7.57
2019-02-22T15:26:24.060Z,7.87
2019-02-22T15:28:51.861Z,8.40
2019-02-22T15:31:19.598Z,7.47
2019-02-22T15:33:47.383Z,6.97
2019-02-22T15:36:16.102Z,7.90
2019-02-22T15:38:44.156Z,7.03
2019-02-22T15:41:12.005Z,7.10
2019-02-22T15:43:39.861Z,6.30
2019-02-22T15:46:12.134Z,5.77
2019-02-22T15:48:37.375Z,6.20
2019-02-22T15:51:07.251Z,6.70
2019-02-22T15:53:34.786Z,6.03
2019-02-22T15:56:02.573Z,5.43
2019-02-22T15:58:30.329Z,7.57
2019-02-22T16:00:58.105Z,6.40
2019-02-22T16:03:28.118Z,5.87
2019-02-22T16:05:55.913Z,6.03
2019-02-22T16:08:23.702Z,7.13
2019-02-22T16:10:51.486Z,6.60
2019-02-22T16:13:19.273Z,6.10
2019-02-22T16:15:47.204Z,5.73
2019-02-22T16:18:15.029Z,6.37
2019-02-22T16:20:42.843Z,6.50
2019-02-22T16:23:10.613Z,6.77
2019-02-22T16:25:38.452Z,7.20
2019-02-22T16:28:06.181Z,6.20
2019-02-22T16:30:35.393Z,7.80
2019-02-22T16:33:03.234Z,9.00
2019-02-22T16:35:31.001Z,7.63
2019-02-22T16:37:58.781Z,8.47
2019-02-22T16:40:26.544Z,7.13
2019-02-22T16:42:54.292Z,7.23
2019-02-22T16:45:22.198Z,7.53
2019-02-22T16:47:49.958Z,7.90
2019-02-22T16:50:17.713Z,8.00
2019-02-22T16:52:45.582Z,8.53
2019-02-22T16:55:13.874Z,10.13
2019-02-22T16:57:41.628Z,8.63
2019-02-22T17:00:11.567Z,8.13
2019-02-22T17:02:39.327Z,8.90
2019-02-22T17:05:08.976Z,8.23
2019-02-22T17:07:36.735Z,8.90
2019-02-22T17:10:05.391Z,7.60
2019-02-22T17:12:33.128Z,9.93
2019-02-22T17:15:01.045Z,8.70
2019-02-22T17:17:28.804Z,9.20
2019-02-22T17:19:56.581Z,9.67
2019-02-22T17:22:24.352Z,8.83
2019-02-22T17:24:52.301Z,9.97
2019-02-22T17:27:20.089Z,11.20
2019-02-22T17:29:47.835Z,10.33
2019-02-22T17:32:15.612Z,9.80
2019-02-22T17:34:45.477Z,11.27
2019-02-22T17:37:13.386Z,11.33
2019-02-22T17:39:41.294Z,9.47
2019-02-22T17:42:09.249Z,10.83
2019-02-22T17:44:37.019Z,11.03
2019-02-22T17:47:06.578Z,11.53
2019-02-22T17:49:34.670Z,12.47
2019-02-22T17:52:02.599Z,12.47
2019-02-22T17:54:30.362Z,13.73
2019-02-22T17:56:58.167Z,13.43
2019-02-22T17:59:28.304Z,14.30
2019-02-22T18:01:56.253Z,14.67
2019-02-22T18:04:24.045Z,15.77
2019-02-22T18:06:51.991Z,14.67
2019-02-22T18:09:19.967Z,14.50
2019-02-22T18:11:47.880Z,14.47
2019-02-22T18:14:15.660Z,15.20
2019-02-22T18:16:44.576Z,15.07
2019-02-22T18:19:12.320Z,14.60
2019-02-22T18:21:40.054Z,15.80
2019-02-22T18:24:07.863Z,15.67
2019-02-22T18:26:37.683Z,17.03
2019-02-22T18:29:05.290Z,16.23
2019-02-22T18:31:33.182Z,18.93
2019-02-22T18:34:00.938Z,15.70
2019-02-22T18:36:28.764Z,18.50
2019-02-22T18:38:56.577Z,16.63
2019-02-22T18:41:24.343Z,15.90
2019-02-22T18:43:52.106Z,17.17
2019-02-22T18:46:20.303Z,16.10
2019-02-22T18:48:48.016Z,19.27
2019-02-22T18:51:15.855Z,13.53
2019-02-22T18:53:43.588Z,16.17
2019-02-22T18:56:11.385Z,14.93
2019-02-22T18:58:39.144Z,14.67
2019-02-22T19:01:06.954Z,17.93
2019-02-22T19:03:34.701Z,16.20
2019-02-22T19:06:02.513Z,17.00
2019-02-22T19:08:32.637Z,18.93
2019-02-22T19:11:00.635Z,15.60
2019-02-22T19:13:28.429Z,15.03
2019-02-22T19:15:56.175Z,16.57
2019-02-22T19:18:23.960Z,15.77
2019-02-22T19:20:51.779Z,16.73
2019-02-22T19:23:19.542Z,14.60
2019-02-22T19:25:47.355Z,15.47
2019-02-22T19:28:15.871Z,15.93
2019-02-22T19:30:43.681Z,17.93
2019-02-22T19:33:11.432Z,16.53
2019-02-22T19:35:39.238Z,17.77
2019-02-22T19:38:07.002Z,15.70
2019-02-22T19:40:34.814Z,17.30
2019-02-22T19:43:02.596Z,17.63
2019-02-22T19:45:30.374Z,17.10
2019-02-22T19:47:58.184Z,17.57
2019-02-22T19:50:26.009Z,15.30
2019-02-22T19:52:53.790Z,18.23
2019-02-22T19:55:21.680Z,20.77
2019-02-22T19:57:49.456Z,18.47
2019-02-22T20:00:17.241Z,20.23
2019-02-22T20:02:45.073Z,22.23
2019-02-22T20:05:13.076Z,19.63
2019-02-22T20:07:42.522Z,23.23
2019-02-22T20:10:17.890Z,22.33
2019-02-22T20:12:41.860Z,25.13
2019-02-22T20:15:11.657Z,22.67
2019-02-22T20:17:40.334Z,22.53
2019-02-22T20:20:10.961Z,23.27
2019-02-22T20:22:39.624Z,25.13
2019-02-22T20:25:07.484Z,27.53
2019-02-22T20:27:35.335Z,28.60
2019-02-22T20:30:03.299Z,26.77
2019-02-22T20:32:31.141Z,29.33
2019-02-22T20:34:58.966Z,24.07
2019-02-22T20:37:26.776Z,25.30
2019-02-22T20:39:54.613Z,25.90
2019-02-22T20:42:22.477Z,28.10
2019-02-22T20:44:50.272Z,25.60
2019-02-22T20:47:18.152Z,26.00
2019-02-22T20:49:45.981Z,26.40
2019-02-22T20:52:13.853Z,27.20
2019-02-22T20:54:41.652Z,26.53
2019-02-22T20:57:09.453Z,24.70
2019-02-22T20:59:37.359Z,27.83
2019-02-22T21:02:05.180Z,23.90
2019-02-22T21:04:32.989Z,27.37
2019-02-22T21:07:00.798Z,26.63
2019-02-22T21:09:28.634Z,29.30
2019-02-22T21:11:57.163Z,28.47
2019-02-22T21:14:25.027Z,26.27
2019-02-22T21:16:52.861Z,28.73
2019-02-22T21:19:20.709Z,27.27
2019-02-22T21:21:48.502Z,28.57
2019-02-22T21:24:16.311Z,28.17
2019-02-22T21:26:44.117Z,30.23
2019-02-22T21:29:11.934Z,30.07
2019-02-22T21:31:39.825Z,30.77
2019-02-22T21:34:07.641Z,29.33
2019-02-22T21:36:35.438Z,26.97
2019-02-22T21:39:03.840Z,24.97
2019-02-22T21:41:31.612Z,22.70
2019-02-22T21:43:59.410Z,25.20
2019-02-22T21:46:28.870Z,22.57
2019-02-22T21:48:56.773Z,19.33
2019-02-22T21:51:24.524Z,19.73
2019-02-22T21:53:52.312Z,16.57
2019-02-22T21:56:20.084Z,14.90
2019-02-22T21:58:48.855Z,15.57
2019-02-22T22:01:16.852Z,13.93
2019-02-22T22:03:44.618Z,14.83
2019-02-22T22:06:12.434Z,15.83
2019-02-22T22:08:40.218Z,16.90
2019-02-22T22:11:08.040Z,16.83
2019-02-22T22:13:35.837Z,15.50
2019-02-22T22:16:03.671Z,13.90
2019-02-22T22:18:38.508Z,13.77
2019-02-22T22:21:01.179Z,14.13
2019-02-22T22:23:28.967Z,14.67
2019-02-22T22:25:56.738Z,14.30
2019-02-22T22:28:24.525Z,16.07
2019-02-22T22:30:52.341Z,15.20
2019-02-22T22:33:20.116Z,14.23
2019-02-22T22:35:47.908Z,15.83
2019-02-22T22:38:15.695Z,14.70
2019-02-22T22:40:43.463Z,14.17
2019-02-22T22:43:11.686Z,13.13
2019-02-22T22:45:39.517Z,13.43
2019-02-22T22:48:07.291Z,14.23
2019-02-22T22:50:35.064Z,12.37
2019-02-22T22:53:02.845Z,14.90
2019-02-22T22:55:30.632Z,14.00
2019-02-22T22:57:58.401Z,12.83
2019-02-22T23:00:46.639Z,12.90
2019-02-22T23:03:14.526Z,15.07
2019-02-22T23:05:42.325Z,12.43
2019-02-22T23:08:10.077Z,12.57
2019-02-22T23:10:37.886Z,13.10
2019-02-22T23:13:05.632Z,14.90
2019-02-22T23:15:33.424Z,14.20
2019-02-22T23:18:01.196Z,12.70
2019-02-22T23:20:28.971Z,13.60
2019-02-22T23:22:56.717Z,14.20
2019-02-22T23:25:24.519Z,13.43
2019-02-22T23:27:52.277Z,13.23
2019-02-22T23:30:20.002Z,12.67
2019-02-22T23:32:47.796Z,13.93
2019-02-22T23:35:15.550Z,13.63
2019-02-22T23:37:43.394Z,14.00
2019-02-22T23:40:11.171Z,14.40
2019-02-22T23:42:38.968Z,13.77
2019-02-22T23:45:06.794Z,12.53
2019-02-22T23:47:34.644Z,11.50
2019-02-22T23:50:02.473Z,10.87
2019-02-22T23:52:30.272Z,12.03
2019-02-22T23:54:58.008Z,10.83
2019-02-22T23:57:26.566Z,12.67
2019-02-22T23:59:54.306Z,10.80
